Wetterdaten: Woche 06.03.23 - 12.03.23 (KW10)
Datum Zeit Temp. Aussen Temp. o. S. Temp +5cm Feuchte Auss Luftdruck Regen Sonnenschein Regendauer Solar Windben Empfang
06.03.2023 00:00 3,0 C 2,3 C -0,9 C 94 % 1009,6 hPa 0,0 l/m 0,00 h 0,52 h 0 W/m 6,8 km/h (2 Bft) 94,99 %
06.03.2023 01:00 2,6 C 2,0 C -1,1 C 95 % 1009,1 hPa 0,2 l/m 0,00 h 0,10 h 0 W/m 8,1 km/h (2 Bft) 94,67 %
06.03.2023 02:00 2,4 C 1,9 C -1,1 C 95 % 1008,3 hPa 0,0 l/m 0,00 h 0,03 h 0 W/m 6,7 km/h (2 Bft) 97,11 %
06.03.2023 03:00 2,6 C 2,2 C -1,0 C 96 % 1007,9 hPa 0,0 l/m 0,00 h 0,03 h 0 W/m 6,5 km/h (2 Bft) 97,67 %
06.03.2023 04:00 2,4 C 2,1 C -0,8 C 96 % 1007,5 hPa 0,0 l/m 0,00 h 0,00 h 0 W/m 7,1 km/h (2 Bft) 96,62 %
06.03.2023 05:00 2,5 C 2,2 C -0,7 C 95 % 1006,9 hPa 0,0 l/m 0,00 h 0,00 h 0 W/m 6,9 km/h (2 Bft) 98,09 %
06.03.2023 06:00 2,3 C 1,8 C -1,0 C 95 % 1006,7 hPa 0,0 l/m 0,00 h 0,00 h 0 W/m 4,2 km/h (1 Bft) 98,08 %
06.03.2023 07:00 2,3 C 1,8 C -1,0 C 95 % 1006,5 hPa 0,0 l/m 0,00 h 0,00 h 12 W/m 6,6 km/h (2 Bft) 96,37 %
06.03.2023 08:00 2,5 C 2,3 C -0,6 C 94 % 1006,5 hPa 0,0 l/m 0,00 h 0,00 h 48 W/m 11,2 km/h (2 Bft) 87,06 %
06.03.2023 09:00 3,0 C 3,1 C 0,0 C 93 % 1006,4 hPa 0,0 l/m 0,00 h 0,00 h 99 W/m 14,3 km/h (3 Bft) 97,85 %
06.03.2023 10:00 3,4 C 3,7 C 0,3 C 92 % 1006,5 hPa 0,2 l/m 0,10 h 0,17 h 130 W/m 11,7 km/h (2 Bft) 94,88 %
06.03.2023 11:00 3,7 C 3,6 C 0,5 C 92 % 1006,5 hPa 0,0 l/m 0,00 h 0,10 h 113 W/m 12,3 km/h (3 Bft) 97,30 %
06.03.2023 12:00 4,3 C 5,4 C 1,8 C 91 % 1006,6 hPa 0,0 l/m 0,30 h 0,00 h 218 W/m 12,0 km/h (2 Bft) 98,43 %
06.03.2023 13:00 5,1 C 6,7 C 2,1 C 87 % 1006,1 hPa 0,0 l/m 0,27 h 0,00 h 251 W/m 12,5 km/h (3 Bft) 94,88 %
06.03.2023 14:00 5,9 C 7,8 C 2,6 C 84 % 1005,6 hPa 0,0 l/m 0,80 h 0,00 h 334 W/m 15,6 km/h (3 Bft) 95,21 %
06.03.2023 15:00 6,1 C 7,2 C 2,7 C 82 % 1005,2 hPa 0,0 l/m 0,97 h 0,00 h 262 W/m 16,5 km/h (3 Bft) 98,36 %
06.03.2023 16:00 6,0 C 6,2 C 2,2 C 81 % 1004,9 hPa 0,0 l/m 0,83 h 0,00 h 168 W/m 17,2 km/h (3 Bft) 97,51 %
06.03.2023 17:00 5,4 C 4,9 C 1,6 C 82 % 1004,4 hPa 0,0 l/m 0,07 h 0,00 h 42 W/m 17,2 km/h (3 Bft) 97,70 %
06.03.2023 18:00 4,8 C 4,1 C 0,9 C 84 % 1004,0 hPa 0,0 l/m 0,00 h 0,03 h 7 W/m 11,1 km/h (2 Bft) 96,50 %
06.03.2023 19:00 4,6 C 4,0 C 0,7 C 86 % 1003,7 hPa 0,0 l/m 0,00 h 0,00 h 0 W/m 14,2 km/h (3 Bft) 98,28 %
06.03.2023 20:00 4,8 C 4,4 C 1,1 C 80 % 1003,1 hPa 0,0 l/m 0,00 h 0,00 h 0 W/m 23,8 km/h (4 Bft) 95,53 %
06.03.2023 21:00 4,7 C 4,0 C 0,7 C 79 % 1002,3 hPa 0,0 l/m 0,00 h 0,00 h 0 W/m 29,7 km/h (5 Bft) 96,80 %
06.03.2023 22:00 4,2 C 3,3 C -0,0 C 85 % 1001,7 hPa 0,0 l/m 0,00 h 0,50 h 0 W/m 25,3 km/h (4 Bft) 94,99 %
06.03.2023 23:00 3,8 C 3,1 C -0,6 C 92 % 1000,8 hPa 0,4 l/m 0,00 h 0,80 h 0 W/m 25,1 km/h (4 Bft) 99,33 %
07.03.2023 00:00 4,1 C 3,3 C -0,1 C 94 % 1000,2 hPa 0,2 l/m 0,00 h 0,60 h 0 W/m 23,8 km/h (4 Bft) 95,43 %
07.03.2023 01:00 4,1 C 3,3 C 0,0 C 95 % 999,9 hPa 0,6 l/m 0,00 h 1,00 h 0 W/m 20,5 km/h (4 Bft) 98,09 %
07.03.2023 02:00 4,2 C 3,3 C 0,1 C 95 % 999,7 hPa 0,6 l/m 0,00 h 1,00 h 0 W/m 19,4 km/h (3 Bft) 97,30 %
07.03.2023 03:00 4,1 C 3,3 C 0,0 C 96 % 999,1 hPa 0,8 l/m 0,00 h 0,90 h 0 W/m 15,1 km/h (3 Bft) 95,45 %
07.03.2023 04:00 4,0 C 3,3 C 0,1 C 96 % 998,6 hPa 0,4 l/m 0,00 h 0,87 h 0 W/m 16,4 km/h (3 Bft) 98,17 %
07.03.2023 05:00 3,9 C 3,3 C 0,0 C 96 % 998,0 hPa 0,2 l/m 0,00 h 0,50 h 0 W/m 20,5 km/h (4 Bft) 97,26 %
07.03.2023 06:00 3,8 C 3,3 C 0,0 C 96 % 997,5 hPa 0,2 l/m 0,00 h 0,63 h 0 W/m 21,4 km/h (4 Bft) 97,52 %
07.03.2023 07:00 4,0 C 3,3 C 0,4 C 96 % 997,1 hPa 0,0 l/m 0,00 h 0,37 h 9 W/m 22,0 km/h (4 Bft) 95,45 %
07.03.2023 08:00 4,2 C 3,5 C 0,6 C 95 % 996,8 hPa 0,4 l/m 0,00 h 0,93 h 27 W/m 21,6 km/h (4 Bft) 95,84 %
07.03.2023 09:00 4,3 C 3,7 C 0,6 C 95 % 996,8 hPa 0,6 l/m 0,00 h 1,00 h 34 W/m 22,2 km/h (4 Bft) 96,44 %
07.03.2023 10:00 3,4 C 2,7 C -0,0 C 95 % 997,4 hPa 0,8 l/m 0,00 h 1,00 h 62 W/m 16,9 km/h (3 Bft) 96,78 %
07.03.2023 11:00 2,5 C 2,1 C -0,6 C 96 % 997,8 hPa 0,8 l/m 0,00 h 1,00 h 71 W/m 10,4 km/h (2 Bft) 96,76 %
07.03.2023 12:00 2,1 C 2,2 C -0,6 C 96 % 998,0 hPa 0,8 l/m 0,00 h 1,00 h 103 W/m 4,2 km/h (1 Bft) 98,02 %
07.03.2023 13:00 2,1 C 2,2 C -0,6 C 97 % 997,9 hPa 0,6 l/m 0,00 h 1,00 h 111 W/m 3,1 km/h (1 Bft) 95,60 %
07.03.2023 14:00 2,2 C 2,2 C -0,4 C 97 % 997,8 hPa 0,6 l/m 0,00 h 1,00 h 94 W/m 3,3 km/h (1 Bft) 98,25 %
07.03.2023 15:00 2,1 C 1,9 C -0,6 C 97 % 998,0 hPa 0,4 l/m 0,00 h 1,00 h 55 W/m 4,1 km/h (1 Bft) 96,83 %
07.03.2023 16:00 2,1 C 1,7 C -0,6 C 97 % 998,1 hPa 0,4 l/m 0,00 h 1,00 h 34 W/m 6,1 km/h (2 Bft) 94,78 %
07.03.2023 17:00 1,8 C 1,2 C -0,9 C 97 % 998,4 hPa 0,4 l/m 0,00 h 0,93 h 23 W/m 8,4 km/h (2 Bft) 98,43 %
07.03.2023 18:00 1,5 C 1,0 C -1,2 C 97 % 999,3 hPa 0,4 l/m 0,00 h 1,00 h 5 W/m 5,2 km/h (1 Bft) 96,91 %
07.03.2023 19:00 1,4 C 0,7 C -1,7 C 97 % 1000,2 hPa 0,4 l/m 0,00 h 0,97 h 0 W/m 2,6 km/h (1 Bft) 95,01 %
07.03.2023 20:00 1,1 C 0,6 C -1,2 C 97 % 1000,4 hPa 0,2 l/m 0,00 h 0,00 h 0 W/m 4,4 km/h (1 Bft) 98,19 %
07.03.2023 21:00 1,1 C 0,6 C -1,6 C 97 % 1000,8 hPa 0,0 l/m 0,00 h 0,00 h 0 W/m 4,1 km/h (1 Bft) 96,20 %
07.03.2023 22:00 0,9 C 0,6 C -1,7 C 97 % 1001,2 hPa 0,0 l/m 0,00 h 0,00 h 0 W/m 3,2 km/h (1 Bft) 95,35 %
07.03.2023 23:00 0,9 C 0,6 C -1,7 C 97 % 1001,6 hPa 0,0 l/m 0,00 h 0,00 h 0 W/m 7,1 km/h (2 Bft) 97,44 %
08.03.2023 00:00 0,9 C 0,6 C -1,7 C 97 % 1001,5 hPa 0,0 l/m 0,00 h 0,00 h 0 W/m 6,9 km/h (2 Bft) 98,73 %
08.03.2023 01:00 0,9 C 0,6 C -1,7 C 97 % 1001,4 hPa 0,0 l/m 0,00 h 0,00 h 0 W/m 5,5 km/h (1 Bft) 96,56 %
08.03.2023 02:00 0,9 C 0,6 C -1,7 C 97 % 1000,9 hPa 0,0 l/m 0,00 h 0,00 h 0 W/m 0,0 km/h (0 Bft) 95,76 %
08.03.2023 03:00 0,8 C 0,2 C -1,7 C 96 % 1000,2 hPa 0,0 l/m 0,00 h 0,00 h 0 W/m 0,0 km/h (0 Bft) 97,46 %
08.03.2023 04:00 0,6 C 0,0 C -1,7 C 97 % 999,6 hPa 0,0 l/m 0,00 h 0,00 h 0 W/m 2,1 km/h (1 Bft) 95,85 %
08.03.2023 05:00 0,6 C 0,0 C -1,8 C 97 % 998,9 hPa 0,0 l/m 0,00 h 0,00 h 0 W/m 6,2 km/h (2 Bft) 96,26 %
08.03.2023 06:00 0,5 C 0,0 C -2,1 C 97 % 997,9 hPa 0,0 l/m 0,00 h 0,37 h 0 W/m 6,1 km/h (2 Bft) 95,70 %
08.03.2023 07:00 0,3 C -0,1 C -2,2 C 97 % 996,7 hPa 0,0 l/m 0,00 h 1,00 h 6 W/m 7,4 km/h (2 Bft) 98,44 %
08.03.2023 08:00 0,2 C -0,1 C -2,6 C 97 % 996,1 hPa 0,0 l/m 0,00 h 0,97 h 10 W/m 5,1 km/h (1 Bft) 95,31 %
08.03.2023 09:00 0,1 C 0,0 C -2,8 C 97 % 995,1 hPa 0,0 l/m 0,00 h 0,97 h 11 W/m 3,2 km/h (1 Bft) 97,85 %
08.03.2023 10:00 0,2 C 0,9 C -2,0 C 98 % 994,3 hPa 0,2 l/m 0,00 h 0,83 h 33 W/m 3,1 km/h (1 Bft) 97,88 %
08.03.2023 11:00 0,5 C 1,6 C -1,7 C 98 % 993,7 hPa 0,8 l/m 0,00 h 0,37 h 101 W/m 8,4 km/h (2 Bft) 96,70 %
08.03.2023 12:00 0,9 C 2,3 C -1,1 C 98 % 993,3 hPa 1,0 l/m 0,00 h 0,00 h 167 W/m 7,6 km/h (2 Bft) 97,08 %
08.03.2023 13:00 1,1 C 2,2 C -1,1 C 98 % 993,0 hPa 1,0 l/m 0,00 h 0,00 h 156 W/m 10,3 km/h (2 Bft) 97,56 %
08.03.2023 14:00 1,2 C 1,8 C -1,1 C 98 % 992,6 hPa 0,6 l/m 0,00 h 0,00 h 103 W/m 9,9 km/h (2 Bft) 96,05 %
08.03.2023 15:00 1,3 C 1,8 C -1,1 C 97 % 992,1 hPa 0,4 l/m 0,00 h 0,00 h 74 W/m 9,6 km/h (2 Bft) 95,63 %
08.03.2023 16:00 1,3 C 1,3 C -1,1 C 97 % 992,1 hPa 0,4 l/m 0,00 h 0,00 h 47 W/m 9,8 km/h (2 Bft) 98,07 %
08.03.2023 17:00 1,3 C 1,1 C -1,1 C 97 % 992,1 hPa 0,0 l/m 0,00 h 0,10 h 20 W/m 7,7 km/h (2 Bft) 97,87 %
08.03.2023 18:00 1,2 C 0,6 C -1,1 C 97 % 992,0 hPa 0,6 l/m 0,00 h 1,00 h 4 W/m 8,9 km/h (2 Bft) 94,80 %
08.03.2023 19:00 1,1 C 0,6 C -1,1 C 97 % 991,9 hPa 0,2 l/m 0,00 h 0,47 h 0 W/m 9,1 km/h (2 Bft) 97,84 %
08.03.2023 20:00 1,2 C 0,9 C -1,1 C 98 % 991,6 hPa 0,2 l/m 0,00 h 0,07 h 0 W/m 5,7 km/h (1 Bft) 98,21 %
08.03.2023 21:00 1,3 C 1,1 C -1,1 C 98 % 991,4 hPa 0,8 l/m 0,00 h 1,00 h 0 W/m 4,2 km/h (1 Bft) 95,36 %
08.03.2023 22:00 1,2 C 1,1 C -1,1 C 98 % 991,0 hPa 1,0 l/m 0,00 h 0,97 h 0 W/m 4,6 km/h (1 Bft) 97,02 %
08.03.2023 23:00 1,3 C 1,1 C -1,1 C 98 % 990,2 hPa 1,0 l/m 0,00 h 0,67 h 0 W/m 3,6 km/h (1 Bft) 97,73 %
09.03.2023 00:00 1,4 C 1,1 C -0,7 C 98 % 989,9 hPa 0,6 l/m 0,00 h 0,67 h 0 W/m 5,3 km/h (1 Bft) 97,66 %
09.03.2023 01:00 1,6 C 1,1 C -0,6 C 98 % 990,2 hPa 0,2 l/m 0,00 h 0,30 h 0 W/m 5,2 km/h (1 Bft) 96,14 %
09.03.2023 02:00 1,5 C 1,1 C -0,6 C 98 % 990,7 hPa 0,0 l/m 0,00 h 0,00 h 0 W/m 6,2 km/h (2 Bft) 98,22 %
09.03.2023 03:00 1,5 C 1,1 C -0,6 C 99 % 991,8 hPa 0,2 l/m 0,00 h 0,07 h 0 W/m 4,4 km/h (1 Bft) 97,37 %
09.03.2023 04:00 1,4 C 1,1 C -0,6 C 99 % 992,6 hPa 0,0 l/m 0,00 h 0,00 h 0 W/m 0,7 km/h (0 Bft) 96,14 %
09.03.2023 05:00 1,4 C 0,9 C -0,6 C 98 % 993,5 hPa 0,2 l/m 0,00 h 0,30 h 0 W/m 1,1 km/h (0 Bft) 98,71 %
09.03.2023 06:00 1,4 C 1,1 C -0,6 C 99 % 994,3 hPa 0,2 l/m 0,00 h 0,47 h 0 W/m 2,1 km/h (1 Bft) 97,23 %
09.03.2023 07:00 1,4 C 1,1 C -0,5 C 99 % 995,1 hPa 0,2 l/m 0,00 h 0,33 h 19 W/m 1,5 km/h (1 Bft) 95,58 %
09.03.2023 08:00 1,8 C 2,2 C 0,1 C 99 % 995,8 hPa 0,0 l/m 0,00 h 0,00 h 53 W/m 0,0 km/h (0 Bft) 96,15 %
09.03.2023 09:00 2,2 C 2,4 C 0,6 C 99 % 997,0 hPa 0,0 l/m 0,00 h 0,00 h 71 W/m 1,0 km/h (0 Bft) 99,28 %
09.03.2023 10:00 2,5 C 3,1 C 0,9 C 99 % 997,8 hPa 0,0 l/m 0,00 h 0,00 h 124 W/m 4,3 km/h (1 Bft) 95,37 %
09.03.2023 11:00 3,1 C 3,7 C 1,5 C 99 % 998,4 hPa 0,0 l/m 0,00 h 0,00 h 131 W/m 4,5 km/h (1 Bft) 95,40 %
09.03.2023 12:00 3,6 C 4,4 C 1,8 C 99 % 998,7 hPa 0,0 l/m 0,00 h 0,00 h 122 W/m 2,6 km/h (1 Bft) 97,25 %
09.03.2023 13:00 4,1 C 4,5 C 2,1 C 99 % 998,4 hPa 0,2 l/m 0,00 h 0,17 h 111 W/m 2,0 km/h (1 Bft) 95,68 %
09.03.2023 14:00 4,6 C 4,6 C 2,5 C 98 % 997,8 hPa 0,8 l/m 0,00 h 0,70 h 65 W/m 4,0 km/h (1 Bft) 97,37 %
09.03.2023 15:00 5,3 C 5,2 C 2,9 C 98 % 997,5 hPa 0,4 l/m 0,00 h 0,43 h 70 W/m 4,1 km/h (1 Bft) 98,51 %
09.03.2023 16:00 6,0 C 6,1 C 3,7 C 99 % 996,3 hPa 0,0 l/m 0,00 h 0,00 h 76 W/m 9,5 km/h (2 Bft) 95,22 %
09.03.2023 17:00 6,7 C 6,6 C 4,3 C 99 % 995,6 hPa 0,0 l/m 0,00 h 0,00 h 33 W/m 5,8 km/h (2 Bft) 99,57 %
09.03.2023 18:00 6,9 C 6,2 C 4,1 C 99 % 995,0 hPa 0,0 l/m 0,00 h 0,00 h 9 W/m 2,4 km/h (1 Bft) 96,71 %
09.03.2023 19:00 6,4 C 5,8 C 3,6 C 99 % 994,4 hPa 0,0 l/m 0,00 h 0,00 h 0 W/m 0,0 km/h (0 Bft) 96,74 %
09.03.2023 20:00 7,9 C 7,9 C 5,3 C 99 % 993,4 hPa 0,4 l/m 0,00 h 0,77 h 0 W/m 6,8 km/h (2 Bft) 98,08 %
09.03.2023 21:00 8,8 C 8,3 C 5,8 C 99 % 992,2 hPa 0,4 l/m 0,00 h 0,50 h 0 W/m 7,6 km/h (2 Bft) 95,20 %
09.03.2023 22:00 8,9 C 8,3 C 6,1 C 99 % 991,1 hPa 1,2 l/m 0,00 h 0,90 h 0 W/m 10,2 km/h (2 Bft) 96,91 %
09.03.2023 23:00 8,8 C 8,1 C 6,1 C 99 % 989,7 hPa 0,8 l/m 0,00 h 0,73 h 0 W/m 10,2 km/h (2 Bft) 96,91 %
10.03.2023 00:00 9,1 C 8,7 C 6,5 C 99 % 988,2 hPa 0,6 l/m 0,00 h 0,37 h 0 W/m 13,6 km/h (3 Bft) 93,27 %
10.03.2023 01:00 9,9 C 9,2 C 7,0 C 99 % 988,0 hPa 0,6 l/m 0,00 h 0,93 h 0 W/m 24,1 km/h (4 Bft) 98,29 %
10.03.2023 02:00 9,7 C 8,7 C 6,7 C 97 % 988,0 hPa 0,8 l/m 0,00 h 0,60 h 0 W/m 11,4 km/h (2 Bft) 97,21 %
10.03.2023 03:00 9,5 C 8,5 C 6,7 C 97 % 987,8 hPa 0,6 l/m 0,00 h 0,53 h 0 W/m 12,0 km/h (2 Bft) 97,16 %
10.03.2023 04:00 9,3 C 8,4 C 6,7 C 98 % 987,5 hPa 0,0 l/m 0,00 h 0,00 h 0 W/m 12,4 km/h (3 Bft) 98,22 %
10.03.2023 05:00 9,2 C 8,3 C 6,6 C 98 % 987,2 hPa 0,0 l/m 0,00 h 0,00 h 0 W/m 13,3 km/h (3 Bft) 96,84 %
10.03.2023 06:00 8,9 C 8,3 C 6,1 C 97 % 986,9 hPa 0,0 l/m 0,00 h 0,00 h 0 W/m 9,9 km/h (2 Bft) 97,35 %
10.03.2023 07:00 8,9 C 8,3 C 6,3 C 97 % 986,9 hPa 0,0 l/m 0,00 h 0,13 h 17 W/m 14,2 km/h (3 Bft) 96,37 %
10.03.2023 08:00 9,2 C 8,7 C 6,7 C 97 % 987,2 hPa 0,2 l/m 0,00 h 0,30 h 58 W/m 16,2 km/h (3 Bft) 90,89 %
10.03.2023 09:00 9,7 C 10,2 C 7,2 C 97 % 987,4 hPa 0,0 l/m 0,03 h 0,00 h 139 W/m 15,3 km/h (3 Bft) 96,17 %
10.03.2023 10:00 11,0 C 12,5 C 8,4 C 91 % 987,5 hPa 0,0 l/m 0,77 h 0,00 h 245 W/m 20,9 km/h (4 Bft) 96,28 %
10.03.2023 11:00 11,9 C 12,6 C 9,5 C 83 % 987,5 hPa 0,0 l/m 0,40 h 0,00 h 213 W/m 23,1 km/h (4 Bft) 97,81 %
10.03.2023 12:00 11,0 C 9,9 C 7,2 C 86 % 987,5 hPa 1,2 l/m 0,00 h 0,70 h 98 W/m 23,3 km/h (4 Bft) 96,78 %
10.03.2023 13:00 9,8 C 8,7 C 6,4 C 94 % 986,9 hPa 1,0 l/m 0,00 h 0,77 h 111 W/m 17,1 km/h (3 Bft) 96,17 %
10.03.2023 14:00 9,6 C 8,9 C 6,7 C 96 % 986,5 hPa 1,6 l/m 0,00 h 0,33 h 68 W/m 18,3 km/h (3 Bft) 97,66 %
10.03.2023 15:00 8,5 C 7,3 C 5,4 C 96 % 987,4 hPa 1,4 l/m 0,00 h 1,00 h 48 W/m 32,0 km/h (5 Bft) 94,60 %
10.03.2023 16:00 7,2 C 6,0 C 4,2 C 96 % 988,1 hPa 0,4 l/m 0,00 h 0,97 h 24 W/m 31,9 km/h (5 Bft) 98,30 %
10.03.2023 17:00 3,1 C 2,1 C 0,4 C 95 % 991,7 hPa 0,6 l/m 0,00 h 1,00 h 13 W/m 39,8 km/h (6 Bft) 97,92 %
10.03.2023 18:00 1,0 C 0,2 C -1,5 C 96 % 996,0 hPa 0,4 l/m 0,00 h 1,00 h 6 W/m 41,3 km/h (6 Bft) 94,04 %
10.03.2023 19:00 1,0 C 0,6 C -1,3 C 96 % 999,5 hPa 0,0 l/m 0,00 h 0,53 h 0 W/m 30,0 km/h (5 Bft) 95,74 %
10.03.2023 20:00 1,2 C 0,6 C -1,1 C 96 % 1001,4 hPa 0,2 l/m 0,00 h 0,50 h 0 W/m 24,9 km/h (4 Bft) 97,88 %
10.03.2023 21:00 1,2 C 0,8 C -1,0 C 96 % 1002,7 hPa 0,0 l/m 0,00 h 1,00 h 0 W/m 20,4 km/h (4 Bft) 97,48 %
10.03.2023 22:00 1,2 C 0,7 C -1,1 C 96 % 1003,8 hPa 0,0 l/m 0,00 h 0,97 h 0 W/m 20,8 km/h (4 Bft) 96,25 %
10.03.2023 23:00 1,1 C 0,7 C -1,1 C 95 % 1005,0 hPa 0,0 l/m 0,00 h 0,30 h 0 W/m 18,8 km/h (3 Bft) 97,77 %
11.03.2023 00:00 1,4 C 1,1 C -1,1 C 94 % 1006,0 hPa 0,0 l/m 0,00 h 0,03 h 0 W/m 19,4 km/h (3 Bft) 98,15 %
11.03.2023 01:00 1,3 C 0,8 C -1,1 C 93 % 1006,9 hPa 0,0 l/m 0,00 h 0,00 h 0 W/m 13,1 km/h (3 Bft) 97,09 %
11.03.2023 02:00 0,9 C 0,2 C -1,4 C 93 % 1007,3 hPa 0,0 l/m 0,00 h 0,00 h 0 W/m 5,7 km/h (1 Bft) 97,83 %
11.03.2023 03:00 0,3 C -0,4 C -2,0 C 92 % 1007,8 hPa 0,0 l/m 0,00 h 0,00 h 0 W/m 8,3 km/h (2 Bft) 96,52 %
11.03.2023 04:00 -0,2 C -1,0 C -2,6 C 91 % 1008,1 hPa 0,0 l/m 0,00 h 0,00 h 0 W/m 3,6 km/h (1 Bft) 97,66 %
11.03.2023 05:00 -0,5 C -0,9 C -2,6 C 91 % 1008,7 hPa 0,0 l/m 0,00 h 0,00 h 0 W/m 4,0 km/h (1 Bft) 96,10 %
11.03.2023 06:00 -0,3 C -0,6 C -2,2 C 91 % 1009,2 hPa 0,0 l/m 0,00 h 0,00 h 0 W/m 1,9 km/h (1 Bft) 96,03 %
11.03.2023 07:00 -0,3 C -1,1 C -2,6 C 91 % 1009,7 hPa 0,0 l/m 0,00 h 0,00 h 19 W/m 1,5 km/h (1 Bft) 96,79 %
11.03.2023 08:00 -0,1 C 0,3 C -2,2 C 91 % 1010,7 hPa 0,0 l/m 0,23 h 0,00 h 77 W/m 4,9 km/h (1 Bft) 96,42 %
11.03.2023 09:00 2,1 C 7,4 C -0,3 C 85 % 1011,2 hPa 0,0 l/m 0,80 h 0,00 h 239 W/m 7,1 km/h (2 Bft) 97,22 %
11.03.2023 10:00 4,4 C 10,7 C 5,4 C 74 % 1011,5 hPa 0,0 l/m 0,97 h 0,00 h 387 W/m 7,9 km/h (2 Bft) 96,52 %
11.03.2023 11:00 5,0 C 9,4 C 5,3 C 65 % 1011,9 hPa 0,0 l/m 0,70 h 0,00 h 385 W/m 8,5 km/h (2 Bft) 76,18 %
11.03.2023 12:00 5,2 C 7,5 C 2,9 C 62 % 1012,0 hPa 0,0 l/m 0,53 h 0,00 h 294 W/m 5,9 km/h (2 Bft) 90,87 %
11.03.2023 13:00 5,9 C 9,7 C 2,8 C 60 % 1012,0 hPa 0,0 l/m 0,77 h 0,00 h 372 W/m 7,5 km/h (2 Bft) 92,71 %
11.03.2023 14:00 7,0 C 11,2 C 2,6 C 59 % 1011,8 hPa 0,0 l/m 0,93 h 0,00 h 506 W/m 7,1 km/h (2 Bft) 98,22 %
11.03.2023 15:00 7,5 C 10,3 C 2,7 C 56 % 1012,0 hPa 0,0 l/m 1,00 h 0,00 h 454 W/m 8,8 km/h (2 Bft) 99,65 %
11.03.2023 16:00 7,1 C 8,1 C 2,2 C 55 % 1012,1 hPa 0,0 l/m 1,00 h 0,00 h 287 W/m 7,4 km/h (2 Bft) 96,66 %
11.03.2023 17:00 6,2 C 5,7 C 1,6 C 58 % 1012,1 hPa 0,0 l/m 0,60 h 0,00 h 85 W/m 6,0 km/h (2 Bft) 95,98 %
11.03.2023 18:00 5,2 C 3,4 C -0,4 C 63 % 1012,4 hPa 0,0 l/m 0,23 h 0,00 h 16 W/m 1,0 km/h (0 Bft) 97,34 %
11.03.2023 19:00 3,7 C 2,3 C -1,1 C 69 % 1012,6 hPa 0,0 l/m 0,00 h 0,00 h 0 W/m 2,2 km/h (1 Bft) 95,87 %
11.03.2023 20:00 2,9 C 1,8 C -1,6 C 72 % 1012,9 hPa 0,0 l/m 0,00 h 0,00 h 0 W/m 0,0 km/h (0 Bft) 95,97 %
11.03.2023 21:00 2,3 C 1,3 C -1,7 C 74 % 1013,0 hPa 0,0 l/m 0,00 h 0,00 h 0 W/m 0,0 km/h (0 Bft) 95,85 %
11.03.2023 22:00 1,9 C 1,1 C -1,7 C 77 % 1012,8 hPa 0,0 l/m 0,00 h 0,00 h 0 W/m 0,0 km/h (0 Bft) 96,16 %
11.03.2023 23:00 1,8 C 1,1 C -1,7 C 78 % 1012,8 hPa 0,0 l/m 0,00 h 0,00 h 0 W/m 0,0 km/h (0 Bft) 99,46 %
12.03.2023 00:00 1,8 C 1,1 C -1,9 C 79 % 1012,7 hPa 0,0 l/m 0,00 h 0,00 h 0 W/m 3,9 km/h (1 Bft) 96,55 %
12.03.2023 01:00 1,7 C 1,1 C -1,7 C 79 % 1012,4 hPa 0,0 l/m 0,00 h 0,00 h 0 W/m 8,6 km/h (2 Bft) 97,44 %
12.03.2023 02:00 1,7 C 1,1 C -2,1 C 80 % 1011,8 hPa 0,0 l/m 0,00 h 0,00 h 0 W/m 10,5 km/h (2 Bft) 96,89 %
12.03.2023 03:00 1,6 C 1,1 C -2,2 C 82 % 1011,3 hPa 0,0 l/m 0,00 h 0,00 h 0 W/m 10,9 km/h (2 Bft) 99,65 %
12.03.2023 04:00 1,7 C 1,1 C -1,9 C 81 % 1010,9 hPa 0,0 l/m 0,00 h 0,00 h 0 W/m 11,8 km/h (2 Bft) 92,52 %
12.03.2023 05:00 1,9 C 1,5 C -1,8 C 81 % 1010,7 hPa 0,0 l/m 0,00 h 0,00 h 0 W/m 11,2 km/h (2 Bft) 98,51 %
12.03.2023 06:00 1,8 C 1,3 C -2,0 C 85 % 1009,8 hPa 0,0 l/m 0,00 h 0,00 h 0 W/m 13,9 km/h (3 Bft) 98,07 %
12.03.2023 07:00 2,1 C 1,3 C -1,7 C 89 % 1009,4 hPa 0,0 l/m 0,00 h 0,00 h 12 W/m 17,3 km/h (3 Bft) 96,25 %
12.03.2023 08:00 2,2 C 1,9 C -1,4 C 92 % 1009,2 hPa 0,0 l/m 0,00 h 0,00 h 38 W/m 17,0 km/h (3 Bft) 98,65 %
12.03.2023 09:00 2,8 C 2,6 C -0,9 C 93 % 1009,0 hPa 0,2 l/m 0,00 h 0,00 h 94 W/m 17,7 km/h (3 Bft) 96,50 %
12.03.2023 10:00 3,4 C 3,0 C -0,3 C 95 % 1009,1 hPa 0,6 l/m 0,00 h 0,13 h 76 W/m 14,0 km/h (3 Bft) 96,71 %
12.03.2023 11:00 4,7 C 4,6 C 1,2 C 97 % 1009,3 hPa 0,4 l/m 0,00 h 0,00 h 78 W/m 8,9 km/h (2 Bft) 96,73 %
12.03.2023 12:00 7,3 C 7,4 C 3,4 C 98 % 1009,2 hPa 0,0 l/m 0,00 h 0,08 h 134 W/m 10,6 km/h (2 Bft) 97,72 %
12.03.2023 13:00 9,3 C 10,1 C 5,3 C 99 % 1009,0 hPa 0,0 l/m 0,13 h 0,00 h 202 W/m 13,3 km/h (3 Bft) 95,27 %
12.03.2023 14:00 10,2 C 10,1 C 5,7 C 97 % 1008,4 hPa 0,2 l/m 0,00 h 0,17 h 85 W/m 10,6 km/h (2 Bft) 97,03 %
12.03.2023 15:00 10,9 C 11,0 C 6,0 C 91 % 1008,1 hPa 0,0 l/m 0,10 h 0,03 h 140 W/m 15,9 km/h (3 Bft) 95,47 %
12.03.2023 16:00 11,5 C 11,2 C 6,9 C 82 % 1008,4 hPa 0,0 l/m 0,07 h 0,00 h 104 W/m 23,2 km/h (4 Bft) 97,56 %
12.03.2023 17:00 11,2 C 10,5 C 6,7 C 79 % 1008,6 hPa 0,0 l/m 0,00 h 0,00 h 48 W/m 20,9 km/h (4 Bft) 97,48 %
12.03.2023 18:00 10,6 C 9,7 C 5,9 C 81 % 1008,7 hPa 0,0 l/m 0,00 h 0,00 h 11 W/m 14,1 km/h (3 Bft) 97,19 %
12.03.2023 19:00 10,5 C 9,7 C 5,9 C 82 % 1009,0 hPa 0,0 l/m 0,00 h 0,00 h 0 W/m 17,1 km/h (3 Bft) 97,60 %
12.03.2023 20:00 10,5 C 9,4 C 5,7 C 83 % 1008,8 hPa 0,0 l/m 0,00 h 0,00 h 0 W/m 17,5 km/h (3 Bft) 97,70 %
12.03.2023 21:00 10,1 C 9,1 C 5,4 C 84 % 1008,2 hPa 0,0 l/m 0,00 h 0,00 h 0 W/m 15,2 km/h (3 Bft) 95,34 %
12.03.2023 22:00 10,0 C 9,3 C 5,6 C 83 % 1007,5 hPa 0,0 l/m 0,00 h 0,00 h 0 W/m 17,4 km/h (3 Bft) 96,71 %
12.03.2023 23:00 10,5 C 9,9 C 6,0 C 82 % 1006,8 hPa 0,0 l/m 0,00 h 0,00 h 0 W/m 25,1 km/h (4 Bft) 98,74 %
Min-Datum _ 11.03.23 11.03.23 08.03.23 11.03.23 10.03.23 - - - - 06.03.23 12.03.23
_ Min-Zeit 05:08 04:14 08:10 15:26 14:28 - - - - 03:20 04:08
Minimum _ -0,6 C -1,1 C -2,8 C 53 % 986,3 hPa - - - - 0,0 km/h (0 Bft) 31,82 %
Max-Datum _ 10.03.23 10.03.23 10.03.23 09.03.23 11.03.23 10.03.23 11.03.23 06.03.23 11.03.23 10.03.23 06.03.23
_ Max-Zeit 11:28 11:20 11:22 03:26 20:32 14:08 18:12 00:18 11:04 16:36 00:07
Maximum _ 12,2 C 14,4 C 10,6 C 99 % 1013,0 hPa 1,6 l/m 0,07 h 0,08 h 696 W/m 61,2 km/h
SW (7 Bft)
100,00 %
Durchschnitt _ 4,0 C 3,9 C 1,0 C 91 % 1000,7 hPa #35,6 l/m #12:36 h #47:38 h 109 W/m 10,9 km/h (2 Bft) 96,61 %
© 2023 W. Hausmann